logo
Search for airport 
image banner adimage banner adimage banner ad
image banner ad

EYPR - Pociunai

Located in Prienai, Lithuania

ICAO - EYPR, IATA -

Data provided by Airmate  

General information

Coordinates: N54°39'13" E24°3'23"
Elevation is 197 feet MSL.
Magnetic variation is 7° East
View others Airports in Kaunas County

Operational data

Special qualification required
Current time UTC:
Current local time:
Weather at : EYKA - Kaunas/International ( 35 km )
METAR: EYKA 170520Z 27003KT 220V330 9999 BKN006 03/02 Q1000
TAF: TAF EYKA 170506Z 1706/1806 VRB05KT 9000 BKN030 TEMPO 1706/1708 BKN005 TEMPO 1708/1718 SCT025CB PROB40 TEMPO 1712/1718 5000 SHRA TEMPO 1802/1806 OVC005
View NOTAMs / SUP AIP / TFR affecting this airport [VIEW]
Communications frequencies: [VIEW]

Runways:

RWY identifierQFULength (ft)Width (ft)SurfaceLDA (ft)
0448°218859CONC+ASPH
22228°218859CONC+ASPH
18185°3609131GRASS
363609131GRASS
0995°2953131GRASS
27275°2953131GRASS

Airport contact information

Address: Prienai Lithuania

Other aviation service providers

Aviation club (not for profit)

Kauno Apskrities Aviacijos Sporto Klubas

Kauno Apskrities Aviacijos Sporto Klubas
vytas@pociunai.lt+37068536251
+37068536251

Satellite view of EYPR